Time;durP1;ratioP1;P1;durP2;ratioP2;P2;SDS_P1;SDS_P2;PMS_P1;PMS_P2;Temp;Humidity;BMP_temperature;BMP_pressure;BME280_temperature;BME280_humidity;BME280_pressure;Samples;Min_cycle;Max_cycle;Signal;HPM_P1;HPM_P2
2023/10/04 00:00:30;;;;;;;4.22;1.15;;;31.70;33.10;;;;;;5055663;28;20124;-63
2023/10/04 00:02:58;;;;;;;4.43;1.27;;;31.70;33.10;;;;;;5058918;28;20016;-64
2023/10/04 00:05:24;;;;;;;2.85;1.23;;;31.60;33.90;;;;;;5055627;28;20574;-64
2023/10/04 00:07:52;;;;;;;3.15;1.27;;;31.50;32.80;;;;;;5055795;28;20096;-64
2023/10/04 00:10:26;;;;;;;6.72;1.80;;;31.50;33.70;;;;;;5059562;28;20095;-64
2023/10/04 00:12:53;;;;;;;6.55;1.20;;;31.40;32.50;;;;;;5059495;28;20016;-64
2023/10/04 00:15:25;;;;;;;9.20;1.80;;;31.40;32.90;;;;;;5059447;28;20020;-65
2023/10/04 00:17:52;;;;;;;2.53;1.10;;;31.30;33.80;;;;;;5058897;28;20054;-63
2023/10/04 00:20:20;;;;;;;7.15;1.10;;;31.20;34.20;;;;;;5060128;28;20393;-65
2023/10/04 00:22:47;;;;;;;3.72;1.20;;;31.20;33.30;;;;;;5054883;28;20047;-64
2023/10/04 00:25:21;;;;;;;3.85;0.80;;;31.10;33.50;;;;;;5057954;28;20543;-62
2023/10/04 00:27:48;;;;;;;4.55;1.20;;;31.00;32.80;;;;;;5054826;28;20117;-65
2023/10/04 00:30:16;;;;;;;4.18;1.33;;;31.00;34.20;;;;;;5059658;28;20046;-63
2023/10/04 00:32:44;;;;;;;3.13;1.20;;;30.90;33.30;;;;;;5060075;28;20051;-63
2023/10/04 00:35:20;;;;;;;4.25;1.10;;;30.90;33.10;;;;;;5054216;28;20067;-63
2023/10/04 00:37:51;;;;;;;7.97;2.00;;;30.80;34.20;;;;;;5062134;28;20046;-63
2023/10/04 00:40:26;;;;;;;5.93;1.50;;;30.60;33.50;;;;;;5052817;28;20547;-65
2023/10/04 00:42:55;;;;;;;4.10;1.30;;;30.70;33.10;;;;;;5059622;28;20782;-63
2023/10/04 00:45:24;;;;;;;6.50;1.35;;;30.70;33.20;;;;;;5056419;28;20682;-64
2023/10/04 00:47:57;;;;;;;4.03;1.08;;;30.60;33.10;;;;;;5059184;28;20045;-65
2023/10/04 00:50:34;;;;;;;2.42;1.25;;;30.60;33.50;;;;;;5060930;28;20061;-65
2023/10/04 00:53:23;;;;;;;6.57;1.23;;;30.50;33.70;;;;;;5063291;28;20144;-66
2023/10/04 00:55:53;;;;;;;3.33;1.05;;;30.40;33.50;;;;;;5058205;28;20560;-64
2023/10/04 00:58:21;;;;;;;7.55;1.38;;;30.40;34.10;;;;;;5055841;28;20110;-62
2023/10/04 01:00:48;;;;;;;10.13;1.08;;;30.30;34.00;;;;;;5062397;28;20140;-65
2023/10/04 01:03:15;;;;;;;4.95;1.08;;;30.20;34.30;;;;;;5054487;28;20040;-68
2023/10/04 01:05:51;;;;;;;4.57;1.50;;;30.20;34.30;;;;;;5053722;28;20044;-69
2023/10/04 01:08:23;;;;;;;4.25;1.30;;;30.20;34.40;;;;;;5059664;28;20450;-67
2023/10/04 01:10:50;;;;;;;5.32;1.30;;;30.10;33.80;;;;;;5056958;28;20070;-66
2023/10/04 01:13:21;;;;;;;5.40;1.83;;;30.00;35.10;;;;;;5057872;28;20178;-66
2023/10/04 01:15:51;;;;;;;5.90;1.30;;;30.00;34.10;;;;;;5052431;28;20052;-66
2023/10/04 01:18:18;;;;;;;7.93;1.40;;;30.00;34.10;;;;;;5055052;28;20926;-67
2023/10/04 01:20:46;;;;;;;4.40;1.58;;;29.90;34.20;;;;;;5058865;28;20058;-66
2023/10/04 01:23:12;;;;;;;7.65;1.60;;;29.80;35.20;;;;;;5056642;28;20082;-66
2023/10/04 01:25:42;;;;;;;7.55;1.70;;;29.60;35.30;;;;;;5056632;28;20055;-65
2023/10/04 01:28:17;;;;;;;4.13;1.40;;;29.50;35.40;;;;;;5058058;28;20567;-66
2023/10/04 01:30:46;;;;;;;6.10;1.73;;;29.50;36.40;;;;;;5057131;28;20053;-64
2023/10/04 01:33:15;;;;;;;7.00;1.45;;;29.40;35.50;;;;;;5055853;28;20102;-66
2023/10/04 01:35:49;;;;;;;7.57;1.65;;;29.40;35.00;;;;;;5057395;28;20052;-66
2023/10/04 01:38:16;;;;;;;14.82;8.25;;;29.30;36.40;;;;;;5058891;28;20045;-65
2023/10/04 01:40:47;;;;;;;21.75;12.95;;;29.30;36.00;;;;;;5061676;28;20135;-66
2023/10/04 01:43:16;;;;;;;9.20;5.00;;;29.20;36.40;;;;;;5056433;28;20068;-66
2023/10/04 01:46:03;;;;;;;9.55;2.65;;;29.10;36.10;;;;;;5060449;28;20069;-66
2023/10/04 01:48:36;;;;;;;8.35;2.00;;;29.00;36.30;;;;;;5059087;28;20073;-68
2023/10/04 01:51:04;;;;;;;10.13;2.00;;;29.00;37.00;;;;;;5061577;28;20059;-66
2023/10/04 01:53:33;;;;;;;8.35;2.00;;;28.90;37.70;;;;;;5056699;28;20119;-65
2023/10/04 01:56:00;;;;;;;8.57;2.13;;;28.80;38.30;;;;;;5053192;28;20076;-66
2023/10/04 01:58:29;;;;;;;12.65;2.38;;;28.80;38.00;;;;;;5053504;28;20736;-69
2023/10/04 02:00:59;;;;;;;5.65;2.00;;;28.70;37.90;;;;;;5053322;28;20079;-64
2023/10/04 02:03:26;;;;;;;9.93;2.85;;;28.60;37.60;;;;;;5052798;28;20043;-65
2023/10/04 02:05:59;;;;;;;15.23;2.83;;;28.50;38.50;;;;;;5051378;28;20065;-67
2023/10/04 02:08:30;;;;;;;15.35;2.75;;;28.50;38.60;;;;;;5050541;28;20107;-65
2023/10/04 02:10:58;;;;;;;15.65;2.55;;;28.40;39.00;;;;;;5058891;28;20059;-65
2023/10/04 02:13:26;;;;;;;10.40;2.80;;;28.30;39.10;;;;;;5059124;28;20048;-65
2023/10/04 02:16:05;;;;;;;12.77;2.92;;;28.20;38.80;;;;;;5053568;28;20066;-66
2023/10/04 02:18:33;;;;;;;20.00;3.33;;;28.10;39.70;;;;;;5056420;28;20147;-64
2023/10/04 02:21:00;;;;;;;13.38;3.50;;;28.00;39.40;;;;;;5060996;28;20152;-63
2023/10/04 02:23:28;;;;;;;15.07;4.00;;;28.00;39.70;;;;;;5054128;28;20146;-64
2023/10/04 02:25:55;;;;;;;19.02;3.60;;;27.90;40.40;;;;;;5054951;28;20106;-65
2023/10/04 02:28:25;;;;;;;21.67;3.75;;;27.80;40.40;;;;;;5055898;28;20095;-66
2023/10/04 02:30:56;;;;;;;18.48;4.32;;;27.70;40.20;;;;;;5063367;28;20244;-65
2023/10/04 02:33:22;;;;;;;25.38;4.30;;;27.60;41.70;;;;;;5061483;28;20484;-65
2023/10/04 02:35:50;;;;;;;25.17;4.28;;;27.50;41.60;;;;;;5058851;28;20063;-65
2023/10/04 02:38:23;;;;;;;27.83;4.60;;;27.40;41.80;;;;;;5060735;28;20063;-66
2023/10/04 02:40:50;;;;;;;31.45;5.00;;;27.40;41.00;;;;;;5060837;28;20072;-66
2023/10/04 02:43:21;;;;;;;33.92;4.30;;;27.20;41.80;;;;;;5066287;28;20059;-65
2023/10/04 02:45:49;;;;;;;43.22;4.72;;;27.20;43.10;;;;;;5058077;28;20051;-67
2023/10/04 02:48:16;;;;;;;30.50;4.88;;;27.10;42.10;;;;;;5063314;28;20057;-66
2023/10/04 02:50:44;;;;;;;24.00;4.20;;;27.00;42.50;;;;;;5055146;28;20086;-65
2023/10/04 02:53:16;;;;;;;37.95;5.05;;;26.90;42.10;;;;;;5056717;28;20064;-67
2023/10/04 02:55:57;;;;;;;34.92;5.13;;;26.90;42.40;;;;;;5054981;28;20111;-68
2023/10/04 02:58:26;;;;;;;31.55;5.30;;;26.80;42.80;;;;;;5055955;28;20118;-68
2023/10/04 03:00:54;;;;;;;40.25;6.05;;;26.80;43.40;;;;;;5061277;28;20109;-67
2023/10/04 03:03:24;;;;;;;34.72;5.20;;;26.80;43.80;;;;;;5062275;28;20083;-68
2023/10/04 03:06:05;;;;;;;36.15;4.80;;;26.70;43.30;;;;;;5062004;28;20056;-66
2023/10/04 03:08:38;;;;;;;38.30;5.63;;;26.60;43.50;;;;;;5059251;28;20087;-70
2023/10/04 03:11:04;;;;;;;42.90;5.88;;;26.60;43.80;;;;;;5056198;28;20084;-67
2023/10/04 03:13:32;;;;;;;30.30;5.95;;;26.50;43.80;;;;;;5059879;28;20053;-67
2023/10/04 03:16:00;;;;;;;37.97;6.88;;;26.50;44.20;;;;;;5058040;28;20057;-64
2023/10/04 03:18:26;;;;;;;39.50;6.38;;;26.40;45.00;;;;;;5056308;28;20113;-68
2023/10/04 03:21:08;;;;;;;41.22;6.68;;;26.40;46.40;;;;;;5060687;28;20590;-70
2023/10/04 03:23:40;;;;;;;38.20;7.53;;;26.40;45.80;;;;;;5060649;28;20055;-67
2023/10/04 03:26:12;;;;;;;58.60;7.32;;;26.30;45.20;;;;;;5058790;28;20448;-69
2023/10/04 03:28:38;;;;;;;41.42;6.95;;;26.20;45.10;;;;;;5056821;28;20071;-69
2023/10/04 03:31:14;;;;;;;41.65;7.20;;;26.20;45.20;;;;;;5056446;28;20055;-67
2023/10/04 03:33:45;;;;;;;61.60;8.20;;;26.10;46.10;;;;;;5053713;28;20071;-66
2023/10/04 03:36:18;;;;;;;42.97;8.10;;;26.10;45.70;;;;;;5050202;28;20068;-65
2023/10/04 03:38:45;;;;;;;61.45;7.90;;;26.00;45.90;;;;;;5058879;28;20089;-69
2023/10/04 03:41:12;;;;;;;52.60;7.25;;;26.00;45.90;;;;;;5063633;28;20081;-67
2023/10/04 03:43:40;;;;;;;62.28;9.00;;;25.90;45.80;;;;;;5054297;28;20131;-62
2023/10/04 03:46:16;;;;;;;47.28;8.25;;;26.00;47.00;;;;;;5058750;28;20043;-60
2023/10/04 03:48:45;;;;;;;43.80;7.57;;;26.00;47.70;;;;;;5056874;28;20041;-61
2023/10/04 03:51:13;;;;;;;49.97;8.32;;;26.00;47.20;;;;;;5056794;28;20500;-62
2023/10/04 03:53:43;;;;;;;50.90;8.18;;;25.90;46.60;;;;;;5058483;28;20052;-62
2023/10/04 03:56:14;;;;;;;63.65;8.48;;;25.90;45.80;;;;;;5064386;28;20051;-61
2023/10/04 03:58:42;;;;;;;63.42;9.52;;;25.90;47.70;;;;;;5058448;28;20044;-66
2023/10/04 04:01:10;;;;;;;51.20;9.48;;;25.90;46.40;;;;;;5059171;28;20406;-61
2023/10/04 04:03:36;;;;;;;61.15;10.00;;;25.90;47.10;;;;;;5060556;28;20049;-60
2023/10/04 04:06:07;;;;;;;52.50;9.00;;;25.80;46.20;;;;;;5054158;28;20511;-61
2023/10/04 04:08:34;;;;;;;67.00;10.30;;;25.80;47.10;;;;;;5053900;28;20036;-60
2023/10/04 04:11:01;;;;;;;87.93;10.98;;;25.80;46.80;;;;;;5058210;28;20048;-64
2023/10/04 04:13:28;;;;;;;58.60;9.35;;;25.70;46.90;;;;;;5056762;28;20049;-63
2023/10/04 04:15:55;;;;;;;60.55;9.95;;;25.80;46.80;;;;;;5056794;28;20085;-63
2023/10/04 04:18:23;;;;;;;69.80;11.40;;;25.80;47.10;;;;;;5061751;28;20416;-62
2023/10/04 04:20:51;;;;;;;82.50;11.93;;;25.70;47.70;;;;;;5057036;28;20056;-63
2023/10/04 04:23:19;;;;;;;63.67;10.55;;;25.70;47.20;;;;;;5058249;28;20060;-64
2023/10/04 04:25:47;;;;;;;332.38;20.52;;;25.70;47.50;;;;;;5052416;28;20037;-62
2023/10/04 04:28:14;;;;;;;127.38;15.52;;;25.70;47.40;;;;;;5056984;28;20048;-62
2023/10/04 04:30:41;;;;;;;107.80;14.73;;;25.60;47.70;;;;;;5057083;28;20054;-63
2023/10/04 04:33:08;;;;;;;181.85;17.55;;;25.60;48.30;;;;;;5059014;28;20852;-66
2023/10/04 04:38:21;;;;;;;168.05;19.77;;;25.60;48.30;;;;;;5061768;28;20053;-60
2023/10/04 04:40:50;;;;;;;141.83;18.00;;;25.60;48.50;;;;;;5059736;28;21820;-63
2023/10/04 04:45:53;;;;;;;116.95;18.52;;;25.40;47.80;;;;;;5059382;28;20752;-60
2023/10/04 04:48:29;;;;;;;112.05;17.70;;;25.40;50.00;;;;;;5056865;28;20469;-59
2023/10/04 04:50:57;;;;;;;120.85;18.90;;;25.40;48.80;;;;;;5053227;28;20054;-59
2023/10/04 04:53:27;;;;;;;101.65;17.70;;;25.30;49.10;;;;;;5056869;28;20382;-60
2023/10/04 04:55:55;;;;;;;114.82;19.77;;;25.30;48.90;;;;;;5052949;28;20654;-60
2023/10/04 04:58:22;;;;;;;94.38;19.33;;;25.20;48.60;;;;;;5062027;28;20049;-61
2023/10/04 05:00:56;;;;;;;131.20;20.67;;;25.10;49.60;;;;;;5062129;28;20066;-58
2023/10/04 05:03:26;;;;;;;139.45;22.23;;;25.00;49.30;;;;;;5055883;28;20050;-58
2023/10/04 05:05:55;;;;;;;125.40;19.83;;;24.90;49.50;;;;;;5055825;28;20053;-61
2023/10/04 05:08:23;;;;;;;102.05;20.05;;;24.90;49.40;;;;;;5054587;28;20091;-58
2023/10/04 05:10:49;;;;;;;115.50;21.48;;;24.90;49.20;;;;;;5055694;28;20104;-60
2023/10/04 05:13:18;;;;;;;122.97;22.38;;;24.90;48.50;;;;;;5053764;28;20550;-59
2023/10/04 05:15:49;;;;;;;125.40;21.52;;;24.90;48.90;;;;;;5052374;28;20587;-60
2023/10/04 05:18:20;;;;;;;125.95;22.73;;;24.90;49.50;;;;;;5053160;28;20102;-60
2023/10/04 05:20:53;;;;;;;108.50;22.10;;;24.80;48.70;;;;;;5058873;28;21394;-60
2023/10/04 05:23:21;;;;;;;118.47;21.48;;;24.80;49.00;;;;;;5055133;28;20052;-60
2023/10/04 05:25:49;;;;;;;122.43;21.33;;;24.80;49.40;;;;;;5051601;28;20121;-60
2023/10/04 05:28:15;;;;;;;118.68;22.40;;;24.90;49.70;;;;;;5050821;28;20591;-61
2023/10/04 05:30:45;;;;;;;122.03;22.92;;;24.80;49.70;;;;;;5058227;28;20080;-61
2023/10/04 05:33:13;;;;;;;104.82;21.73;;;24.80;49.60;;;;;;5051229;28;20050;-61
2023/10/04 05:35:42;;;;;;;110.25;23.00;;;24.80;50.00;;;;;;5052219;28;20053;-59
2023/10/04 05:38:14;;;;;;;111.28;22.52;;;24.80;49.70;;;;;;5061388;28;20525;-61
2023/10/04 05:40:45;;;;;;;120.95;21.60;;;24.80;49.60;;;;;;5054956;28;20072;-60
2023/10/04 05:43:12;;;;;;;109.70;21.58;;;24.70;50.20;;;;;;5056021;28;20083;-60
2023/10/04 05:45:42;;;;;;;117.57;40.25;;;24.70;50.10;;;;;;5056153;28;20046;-60
2023/10/04 05:48:10;;;;;;;152.57;45.15;;;24.50;50.30;;;;;;5055397;28;20041;-60
2023/10/04 05:50:37;;;;;;;111.40;33.05;;;24.40;51.10;;;;;;5055452;28;20456;-60
2023/10/04 05:53:07;;;;;;;95.47;24.75;;;24.30;50.40;;;;;;5053308;28;20425;-60
2023/10/04 05:55:37;;;;;;;101.78;22.50;;;24.30;50.20;;;;;;5052736;28;20469;-62
2023/10/04 05:58:07;;;;;;;105.78;21.50;;;24.30;50.50;;;;;;5053586;28;20057;-61
2023/10/04 06:00:40;;;;;;;96.72;19.98;;;24.30;50.40;;;;;;5056673;28;20065;-61
2023/10/04 06:03:10;;;;;;;99.40;19.35;;;24.20;49.90;;;;;;5052962;28;20080;-61
2023/10/04 06:05:38;;;;;;;112.40;21.00;;;24.30;50.60;;;;;;5053575;28;20064;-60
2023/10/04 06:08:11;;;;;;;107.70;20.48;;;24.30;51.00;;;;;;5059008;28;20049;-62
2023/10/04 06:10:38;;;;;;;107.70;19.80;;;24.30;50.90;;;;;;5057724;28;20056;-61
2023/10/04 06:13:11;;;;;;;93.40;18.25;;;24.30;50.40;;;;;;5053348;28;20402;-61
2023/10/04 06:15:47;;;;;;;92.88;17.98;;;24.30;50.10;;;;;;5055700;28;20055;-59
2023/10/04 06:18:16;;;;;;;92.35;19.40;;;24.20;51.20;;;;;;5058379;28;20058;-59
2023/10/04 06:20:43;;;;;;;98.15;19.13;;;24.10;50.70;;;;;;5054063;28;20520;-61
2023/10/04 06:23:14;;;;;;;94.80;20.20;;;24.10;50.80;;;;;;5055546;28;20081;-62
2023/10/04 06:25:42;;;;;;;95.63;21.50;;;24.10;51.20;;;;;;5057303;28;20092;-60
2023/10/04 06:28:12;;;;;;;82.10;20.98;;;24.00;50.70;;;;;;5054353;28;20137;-60
2023/10/04 06:30:39;;;;;;;104.68;19.48;;;24.00;51.20;;;;;;5058184;28;20140;-59
2023/10/04 06:33:09;;;;;;;91.10;20.83;;;23.90;51.70;;;;;;5053439;28;20049;-61
2023/10/04 06:35:37;;;;;;;87.78;18.63;;;23.80;51.60;;;;;;5057017;28;20146;-60
2023/10/04 06:38:08;;;;;;;96.80;19.50;;;23.60;52.60;;;;;;5053997;28;20143;-61
2023/10/04 06:40:36;;;;;;;93.15;20.02;;;23.60;51.80;;;;;;5055614;28;20066;-60
2023/10/04 06:43:04;;;;;;;92.13;18.67;;;23.50;52.00;;;;;;5057229;28;20236;-61
2023/10/04 06:45:32;;;;;;;86.72;18.55;;;23.40;52.00;;;;;;5052759;28;20105;-60
2023/10/04 06:48:01;;;;;;;115.88;19.85;;;23.40;52.00;;;;;;5057620;28;20143;-60
2023/10/04 06:50:32;;;;;;;86.80;17.95;;;23.40;52.70;;;;;;5057201;28;20540;-62
2023/10/04 06:53:01;;;;;;;76.53;18.23;;;23.50;52.60;;;;;;5052074;28;20057;-61
2023/10/04 06:55:28;;;;;;;81.90;17.67;;;23.50;53.00;;;;;;5055867;28;20093;-60
2023/10/04 06:57:55;;;;;;;92.63;19.45;;;23.50;53.00;;;;;;5056403;28;20556;-60
2023/10/04 07:00:30;;;;;;;86.43;19.13;;;23.50;53.10;;;;;;5057103;28;20079;-62
2023/10/04 07:02:58;;;;;;;79.65;17.35;;;23.50;52.10;;;;;;5055620;28;20081;-60
2023/10/04 07:05:27;;;;;;;83.72;18.73;;;23.50;52.30;;;;;;5051824;28;20480;-62
2023/10/04 07:07:57;;;;;;;83.78;19.55;;;23.40;52.20;;;;;;5051856;28;20090;-64
2023/10/04 07:10:29;;;;;;;90.38;18.70;;;23.50;52.40;;;;;;5055665;28;20053;-60
2023/10/04 07:12:58;;;;;;;92.28;19.98;;;23.50;52.00;;;;;;5054343;28;20079;-64
2023/10/04 07:15:27;;;;;;;76.43;19.00;;;23.50;51.50;;;;;;5056800;28;20049;-60
2023/10/04 07:17:54;;;;;;;96.93;20.48;;;23.50;51.20;;;;;;5057862;28;20510;-59
2023/10/04 07:20:24;;;;;;;75.50;17.70;;;23.50;51.40;;;;;;5052211;28;20127;-60
2023/10/04 07:23:03;;;;;;;74.63;16.80;;;23.50;51.00;;;;;;5055932;28;20077;-61
2023/10/04 07:25:34;;;;;;;72.85;17.98;;;23.50;50.80;;;;;;5053691;28;20064;-60
2023/10/04 07:28:03;;;;;;;75.07;16.73;;;23.50;51.20;;;;;;5051655;28;20076;-60
2023/10/04 07:30:31;;;;;;;58.83;15.55;;;23.40;50.70;;;;;;5053872;28;20051;-60
2023/10/04 07:32:59;;;;;;;55.05;14.05;;;23.40;50.10;;;;;;5053577;28;20057;-61
2023/10/04 07:35:26;;;;;;;53.25;13.88;;;23.40;50.30;;;;;;5056431;28;20054;-59
2023/10/04 07:37:54;;;;;;;54.40;13.63;;;23.40;50.60;;;;;;5055082;28;20419;-61
2023/10/04 07:40:23;;;;;;;51.38;13.18;;;23.40;50.70;;;;;;5054328;28;20061;-60
2023/10/04 07:42:54;;;;;;;53.97;12.45;;;23.50;50.60;;;;;;5064143;28;20549;-62
2023/10/04 07:45:27;;;;;;;49.63;11.52;;;23.50;50.10;;;;;;5053247;28;20050;-59
2023/10/04 07:47:56;;;;;;;39.67;10.10;;;23.50;49.70;;;;;;5052444;28;20087;-63
2023/10/04 07:50:25;;;;;;;37.72;8.93;;;23.40;49.60;;;;;;5051987;28;20519;-60
2023/10/04 07:53:00;;;;;;;28.08;7.97;;;23.40;49.90;;;;;;5049813;28;20050;-61
2023/10/04 07:55:27;;;;;;;36.75;7.63;;;23.40;49.00;;;;;;5050645;28;20122;-60
2023/10/04 07:58:02;;;;;;;31.27;7.45;;;23.40;48.30;;;;;;5054791;28;20056;-61
2023/10/04 08:00:29;;;;;;;26.90;5.90;;;23.30;49.10;;;;;;5057304;28;20069;-59
2023/10/04 08:02:57;;;;;;;23.38;5.97;;;23.30;48.60;;;;;;5054818;28;20108;-60
2023/10/04 08:05:26;;;;;;;20.17;4.85;;;23.20;48.80;;;;;;5055341;28;20422;-61
2023/10/04 08:07:54;;;;;;;13.35;4.63;;;23.20;47.40;;;;;;5053634;28;20537;-61
2023/10/04 08:10:25;;;;;;;12.60;3.92;;;23.20;47.50;;;;;;5071099;28;20060;-60
2023/10/04 08:12:53;;;;;;;15.43;3.92;;;23.30;47.00;;;;;;5063636;28;20061;-61
2023/10/04 08:15:21;;;;;;;13.35;2.80;;;23.30;46.30;;;;;;5052672;28;20052;-60
2023/10/04 08:17:48;;;;;;;18.20;2.75;;;23.40;45.40;;;;;;5054262;28;20052;-61
2023/10/04 08:20:15;;;;;;;13.18;2.10;;;23.50;44.70;;;;;;5054087;28;20081;-62
2023/10/04 08:22:43;;;;;;;5.80;2.15;;;23.60;44.30;;;;;;5049087;28;20071;-63
2023/10/04 08:25:12;;;;;;;8.18;2.05;;;23.70;44.00;;;;;;5059370;28;20579;-59
2023/10/04 08:27:40;;;;;;;8.77;2.03;;;23.70;43.80;;;;;;5061948;28;20084;-60
2023/10/04 08:30:09;;;;;;;13.65;1.85;;;23.80;43.70;;;;;;5050585;28;20084;-62
2023/10/04 08:32:36;;;;;;;8.77;1.52;;;23.80;43.30;;;;;;5052656;28;20107;-60
2023/10/04 08:35:03;;;;;;;6.50;1.80;;;23.80;43.30;;;;;;5054063;28;20074;-60
2023/10/04 08:37:30;;;;;;;3.65;1.90;;;23.70;43.30;;;;;;5053869;28;20092;-60
2023/10/04 08:39:57;;;;;;;8.52;1.60;;;23.70;43.50;;;;;;5054602;28;20578;-60
2023/10/04 08:42:24;;;;;;;4.32;1.40;;;23.80;43.40;;;;;;5059985;28;20081;-62
2023/10/04 08:44:53;;;;;;;5.75;1.40;;;23.70;43.50;;;;;;5056619;28;20086;-61
2023/10/04 08:47:22;;;;;;;5.05;1.33;;;23.70;43.60;;;;;;5051073;28;20075;-60
2023/10/04 08:49:55;;;;;;;3.22;1.45;;;23.60;43.90;;;;;;5053248;28;20090;-63
2023/10/04 08:52:36;;;;;;;1.90;1.17;;;23.60;43.90;;;;;;5053391;28;20079;-61
2023/10/04 08:55:07;;;;;;;8.82;1.27;;;23.60;44.10;;;;;;5052579;28;20104;-62
2023/10/04 08:57:40;;;;;;;4.75;1.40;;;23.60;44.90;;;;;;5059360;28;20080;-60
2023/10/04 09:00:14;;;;;;;5.45;1.23;;;23.60;44.90;;;;;;5049194;28;20452;-63
2023/10/04 09:02:45;;;;;;;5.32;1.30;;;23.50;45.30;;;;;;5058986;28;20127;-59
2023/10/04 09:05:16;;;;;;;2.50;1.40;;;23.50;45.20;;;;;;5049747;28;20173;-61
2023/10/04 09:07:44;;;;;;;6.72;1.42;;;23.30;45.30;;;;;;5050829;28;20072;-60
2023/10/04 09:10:18;;;;;;;5.38;1.55;;;23.30;45.30;;;;;;5051031;28;20084;-60
2023/10/04 09:12:48;;;;;;;8.38;1.33;;;23.20;45.60;;;;;;5056810;28;20076;-60
2023/10/04 09:15:15;;;;;;;8.80;1.63;;;23.20;46.50;;;;;;5054704;28;20077;-60
2023/10/04 09:17:46;;;;;;;4.88;1.50;;;23.10;46.20;;;;;;5057113;28;20084;-60
2023/10/04 09:20:17;;;;;;;5.22;1.40;;;23.10;46.30;;;;;;5052223;28;20088;-60
2023/10/04 09:22:44;;;;;;;7.13;1.50;;;23.10;46.30;;;;;;5057322;28;20383;-60
2023/10/04 09:25:15;;;;;;;3.55;1.65;;;23.10;46.40;;;;;;5063183;28;20563;-61
2023/10/04 09:27:56;;;;;;;9.63;1.90;;;23.10;47.40;;;;;;5051430;28;20117;-61
2023/10/04 09:30:24;;;;;;;6.28;1.95;;;23.00;46.60;;;;;;5049697;28;20083;-60
2023/10/04 09:32:51;;;;;;;7.95;1.67;;;22.90;47.60;;;;;;5057230;28;20562;-60
2023/10/04 09:35:21;;;;;;;7.93;1.80;;;22.80;47.30;;;;;;5057730;28;20138;-59
2023/10/04 09:37:49;;;;;;;5.97;1.55;;;22.70;47.10;;;;;;5053500;28;20549;-60
2023/10/04 09:40:23;;;;;;;5.05;1.52;;;22.70;47.30;;;;;;5052172;28;20451;-59
2023/10/04 09:42:56;;;;;;;6.90;1.80;;;22.70;47.50;;;;;;5049075;28;20068;-63
2023/10/04 09:45:26;;;;;;;8.77;1.67;;;22.50;47.50;;;;;;5051720;28;20545;-59
2023/10/04 09:47:54;;;;;;;9.70;1.73;;;22.60;48.10;;;;;;5050053;28;20776;-60
2023/10/04 09:50:26;;;;;;;7.32;1.95;;;22.40;48.70;;;;;;5049837;28;20134;-60
2023/10/04 09:52:53;;;;;;;13.27;2.50;;;22.40;48.00;;;;;;5047720;28;20161;-62
2023/10/04 09:55:22;;;;;;;10.05;2.20;;;22.40;48.50;;;;;;5050848;28;20107;-59
2023/10/04 09:57:49;;;;;;;3.88;2.05;;;22.40;48.30;;;;;;5058851;28;20089;-60
2023/10/04 10:00:22;;;;;;;10.85;2.45;;;22.30;48.50;;;;;;5048937;28;20091;-60
2023/10/04 10:02:52;;;;;;;13.50;2.83;;;22.30;48.60;;;;;;5050680;28;20162;-59
2023/10/04 10:05:28;;;;;;;11.77;2.47;;;22.10;49.30;;;;;;5052512;28;20103;-63
2023/10/04 10:08:04;;;;;;;10.80;2.95;;;22.10;49.30;;;;;;5051491;28;20143;-60
2023/10/04 10:10:37;;;;;;;8.55;2.85;;;22.10;49.20;;;;;;5049306;28;20082;-61
2023/10/04 10:13:06;;;;;;;11.80;3.15;;;22.10;49.20;;;;;;5061370;28;20482;-60
2023/10/04 10:15:34;;;;;;;10.82;2.70;;;22.00;49.90;;;;;;5049931;28;20442;-60
2023/10/04 10:18:00;;;;;;;7.18;3.13;;;22.00;49.40;;;;;;5050265;28;20166;-60
2023/10/04 10:20:27;;;;;;;6.60;2.92;;;22.00;49.20;;;;;;5056172;28;20119;-60
2023/10/04 10:23:00;;;;;;;9.57;3.25;;;22.00;48.90;;;;;;5056695;28;20618;-60
2023/10/04 10:25:29;;;;;;;8.48;2.80;;;22.10;48.90;;;;;;5053757;28;20086;-59
2023/10/04 10:28:01;;;;;;;8.20;2.72;;;22.10;48.50;;;;;;5059284;28;20073;-60
2023/10/04 10:30:31;;;;;;;10.15;2.50;;;22.10;49.10;;;;;;5048648;28;20080;-59
2023/10/04 10:32:59;;;;;;;6.40;2.42;;;22.10;48.90;;;;;;5053472;28;20110;-60
2023/10/04 10:35:56;;;;;;;4.45;2.17;;;22.00;48.90;;;;;;5051534;28;20098;-60
2023/10/04 10:38:41;;;;;;;6.00;2.55;;;22.00;48.50;;;;;;5056698;28;20077;-60
2023/10/04 10:41:27;;;;;;;7.38;2.22;;;21.90;48.90;;;;;;5049718;28;20190;-60
2023/10/04 10:44:19;;;;;;;5.65;2.17;;;21.90;48.20;;;;;;5054970;28;20583;-62
2023/10/04 10:46:57;;;;;;;6.88;2.22;;;21.90;48.00;;;;;;5058492;28;20079;-60
2023/10/04 10:49:44;;;;;;;7.10;2.17;;;21.90;48.50;;;;;;5055494;28;20170;-60
2023/10/04 10:52:21;;;;;;;9.15;1.88;;;21.90;48.60;;;;;;5051826;28;20071;-60
2023/10/04 10:54:48;;;;;;;8.05;1.90;;;21.90;48.70;;;;;;5052239;28;20547;-60
2023/10/04 10:57:16;;;;;;;9.43;2.03;;;21.80;48.80;;;;;;5066000;28;20434;-62
2023/10/04 10:59:43;;;;;;;4.45;1.92;;;21.80;48.80;;;;;;5053380;28;20099;-61
2023/10/04 11:02:09;;;;;;;4.15;1.77;;;21.80;48.70;;;;;;5054416;28;20075;-61
2023/10/04 11:04:36;;;;;;;13.60;2.38;;;21.70;49.70;;;;;;5059676;28;20070;-59
2023/10/04 11:07:02;;;;;;;9.00;2.53;;;21.70;50.50;;;;;;5060154;28;20075;-60
2023/10/04 11:09:36;;;;;;;10.55;2.78;;;21.50;50.50;;;;;;5058202;28;20078;-59
2023/10/04 11:12:07;;;;;;;6.65;2.60;;;21.50;50.10;;;;;;5054105;28;20726;-58
2023/10/04 11:14:36;;;;;;;6.25;2.25;;;21.60;49.90;;;;;;5055255;28;20095;-60
2023/10/04 11:17:06;;;;;;;9.68;2.42;;;21.60;50.10;;;;;;5057595;28;20566;-61
2023/10/04 11:19:34;;;;;;;6.07;2.50;;;21.60;49.70;;;;;;5051995;28;20562;-60
2023/10/04 11:22:02;;;;;;;12.32;2.70;;;21.70;50.30;;;;;;5053563;28;20076;-60
2023/10/04 11:24:29;;;;;;;6.88;2.55;;;21.60;50.10;;;;;;5052334;28;20209;-60
2023/10/04 11:26:59;;;;;;;14.00;2.83;;;21.40;51.40;;;;;;5060039;28;20130;-60
2023/10/04 11:29:29;;;;;;;10.70;3.10;;;21.30;51.90;;;;;;5052652;28;20082;-61
2023/10/04 11:31:58;;;;;;;9.32;2.58;;;21.40;51.30;;;;;;5055895;28;20202;-62
2023/10/04 11:34:30;;;;;;;9.65;2.60;;;21.40;50.90;;;;;;5051978;28;20126;-62
2023/10/04 11:37:01;;;;;;;11.77;2.20;;;21.40;51.00;;;;;;5053005;28;20090;-61
2023/10/04 11:39:34;;;;;;;6.00;2.60;;;21.40;51.00;;;;;;5056914;28;20458;-59
2023/10/04 11:42:02;;;;;;;15.40;3.38;;;21.30;51.50;;;;;;5053556;28;20133;-60
2023/10/04 11:44:41;;;;;;;7.70;2.70;;;21.20;51.20;;;;;;5056516;28;20154;-61
2023/10/04 11:47:10;;;;;;;14.38;2.95;;;21.30;51.80;;;;;;5053657;28;20083;-60
2023/10/04 11:49:40;;;;;;;17.95;2.85;;;21.40;52.00;;;;;;5056090;28;20113;-61
2023/10/04 11:52:07;;;;;;;10.50;3.00;;;21.30;51.70;;;;;;5051751;28;20080;-61
2023/10/04 11:54:38;;;;;;;12.40;3.25;;;21.30;52.10;;;;;;5055087;28;20162;-61
2023/10/04 11:57:05;;;;;;;10.23;3.83;;;21.20;52.40;;;;;;5051393;28;20083;-60
2023/10/04 11:59:33;;;;;;;16.48;3.45;;;21.10;52.50;;;;;;5054121;28;20558;-60
2023/10/04 12:02:00;;;;;;;9.95;3.55;;;21.10;53.10;;;;;;5060054;28;20143;-61
2023/10/04 12:04:28;;;;;;;10.93;3.20;;;21.20;53.80;;;;;;5054889;28;20082;-62
2023/10/04 12:07:04;;;;;;;10.45;3.33;;;21.10;53.70;;;;;;5054831;28;20078;-61
2023/10/04 12:09:33;;;;;;;8.48;2.90;;;21.20;53.60;;;;;;5054473;28;20094;-61
2023/10/04 12:12:07;;;;;;;17.70;3.33;;;21.10;54.00;;;;;;5061158;28;20078;-60
2023/10/04 12:14:34;;;;;;;14.75;2.92;;;21.00;55.10;;;;;;5058344;28;20075;-60
2023/10/04 12:17:05;;;;;;;10.13;3.50;;;20.80;54.50;;;;;;5057399;28;20117;-61
2023/10/04 12:19:35;;;;;;;8.80;3.38;;;20.70;55.70;;;;;;5053738;28;20133;-62
2023/10/04 12:22:12;;;;;;;11.02;3.92;;;20.70;55.50;;;;;;5053460;28;20083;-60
2023/10/04 12:24:39;;;;;;;18.73;4.07;;;20.70;54.60;;;;;;5051600;28;20078;-60
2023/10/04 12:27:09;;;;;;;14.70;3.80;;;20.80;55.00;;;;;;5056660;28;20560;-61
2023/10/04 12:29:38;;;;;;;20.92;4.43;;;20.70;54.60;;;;;;5051990;28;20109;-60
2023/10/04 12:32:07;;;;;;;21.60;4.65;;;20.90;54.90;;;;;;5051248;28;20075;-62
2023/10/04 12:34:34;;;;;;;14.85;4.20;;;21.00;54.70;;;;;;5054014;28;20109;-61
2023/10/04 12:37:01;;;;;;;17.55;4.45;;;20.90;54.60;;;;;;5051966;28;20749;-59
2023/10/04 12:39:28;;;;;;;20.85;4.65;;;20.80;54.90;;;;;;5053588;28;20079;-62
2023/10/04 12:42:00;;;;;;;19.05;4.72;;;20.70;55.40;;;;;;5050770;28;20072;-61
2023/10/04 12:44:27;;;;;;;30.60;5.20;;;20.70;55.60;;;;;;5053576;28;20512;-61
2023/10/04 12:46:53;;;;;;;28.88;5.90;;;20.60;56.00;;;;;;5050771;28;20076;-59
2023/10/04 12:49:20;;;;;;;22.63;5.22;;;20.60;56.10;;;;;;5052620;28;20506;-60
2023/10/04 12:51:47;;;;;;;25.27;6.22;;;20.60;56.40;;;;;;5054119;28;20082;-62
2023/10/04 12:54:16;;;;;;;22.65;5.57;;;20.60;56.40;;;;;;5053679;28;20548;-59